Time;durP1;ratioP1;P1;durP2;ratioP2;P2;SDS_P1;SDS_P2;PMS_P1;PMS_P2;Temp;Humidity;BMP_temperature;BMP_pressure;BME280_temperature;BME280_humidity;BME280_pressure;Samples;Min_cycle;Max_cycle;Signal;HPM_P1;HPM_P2
2021/11/10 06:59:22;;;;;;;13.45;8.60;;;;;;;2.03;70.42;99685.81;2489780;54;50732;-67
2021/11/10 07:01:51;;;;;;;15.57;8.60;;;;;;;1.93;70.06;99701.31;2624726;54;20078;-68
2021/11/10 07:04:21;;;;;;;17.45;8.10;;;;;;;1.89;70.09;99708.53;2625413;54;20034;-68
2021/11/10 07:06:51;;;;;;;11.05;8.02;;;;;;;1.85;70.31;99708.91;2625026;54;20027;-67
2021/11/10 07:09:21;;;;;;;18.05;8.07;;;;;;;1.88;70.46;99725.16;2624189;39;20478;-68
2021/11/10 07:11:50;;;;;;;13.27;8.73;;;;;;;1.90;70.78;99725.03;2623285;54;20038;-71
2021/11/10 07:14:23;;;;;;;12.50;8.45;;;;;;;1.88;70.83;99717.31;2625794;54;20045;-70
2021/11/10 07:16:53;;;;;;;13.63;8.40;;;;;;;1.73;70.54;99708.84;2624638;54;20034;-69
2021/11/10 07:19:23;;;;;;;12.75;7.78;;;;;;;1.61;70.37;99706.34;2625497;54;20046;-70
2021/11/10 07:21:52;;;;;;;11.32;7.38;;;;;;;1.48;71.21;99709.00;2624588;39;20433;-77
2021/11/10 07:24:24;;;;;;;14.27;7.50;;;;;;;1.60;71.59;99715.09;2622620;47;20050;-71
2021/11/10 07:26:54;;;;;;;12.32;7.32;;;;;;;1.65;71.71;99705.16;2625042;39;20422;-70
2021/11/10 07:29:27;;;;;;;18.75;8.35;;;;;;;1.71;71.47;99712.50;2621338;49;20070;-70
2021/11/10 07:31:56;;;;;;;12.77;7.55;;;;;;;1.70;71.29;99716.91;2623497;39;20450;-70
2021/11/10 07:34:26;;;;;;;13.07;7.10;;;;;;;1.84;71.32;99713.28;2624792;54;20030;-70
2021/11/10 07:36:56;;;;;;;13.32;7.30;;;;;;;1.91;70.63;99722.28;2623557;47;20027;-70
2021/11/10 07:39:28;;;;;;;15.35;7.95;;;;;;;1.92;71.10;99718.75;2620705;54;20082;-70
2021/11/10 07:41:58;;;;;;;16.20;8.27;;;;;;;2.06;70.90;99722.09;2619500;54;20118;-71
2021/11/10 07:44:31;;;;;;;14.93;7.97;;;;;;;2.11;71.02;99717.34;2618528;51;20026;-70
2021/11/10 07:47:08;;;;;;;13.43;8.25;;;;;;;2.19;71.22;99713.22;2618443;47;20061;-70
2021/11/10 07:49:38;;;;;;;16.48;9.23;;;;;;;2.28;70.94;99716.06;2618989;54;20041;-70
2021/11/10 07:52:09;;;;;;;15.75;9.65;;;;;;;2.21;70.24;99713.13;2619152;54;20037;-69
2021/11/10 07:54:39;;;;;;;13.13;8.82;;;;;;;2.15;70.92;99721.38;2618292;47;20573;-70
2021/11/10 07:57:10;;;;;;;11.80;8.68;;;;;;;2.20;70.62;99730.53;2618934;54;20034;-70
2021/11/10 07:59:42;;;;;;;12.35;8.35;;;;;;;2.21;70.40;99728.75;2618778;54;20050;-69
2021/11/10 08:02:12;;;;;;;17.42;8.63;;;;;;;2.26;71.07;99731.03;2618632;54;20042;-70
2021/11/10 08:04:42;;;;;;;17.95;8.27;;;;;;;2.30;70.33;99738.50;2617769;47;20046;-70
2021/11/10 08:07:11;;;;;;;12.35;7.75;;;;;;;2.21;70.09;99750.47;2618499;54;20026;-70
2021/11/10 08:09:41;;;;;;;13.65;7.68;;;;;;;2.22;70.79;99748.69;2617879;54;20026;-71
2021/11/10 08:12:11;;;;;;;15.30;7.38;;;;;;;2.35;70.59;99756.41;2619073;39;20434;-70
2021/11/10 08:14:43;;;;;;;15.32;8.60;;;;;;;2.38;70.17;99737.91;2618767;39;20461;-70
2021/11/10 08:17:13;;;;;;;15.70;8.27;;;;;;;2.33;69.93;99737.44;2618066;47;20023;-70
2021/11/10 08:19:43;;;;;;;13.50;7.68;;;;;;;2.30;70.45;99716.78;2619021;54;20039;-70
2021/11/10 08:22:13;;;;;;;25.02;12.85;;;;;;;2.35;70.40;99710.25;2619241;39;20450;-71
2021/11/10 08:24:43;;;;;;;15.40;7.55;;;;;;;2.51;70.69;99719.53;2618870;54;20043;-71
2021/11/10 08:27:12;;;;;;;15.75;8.05;;;;;;;2.59;70.67;99709.31;2618923;54;20034;-69
2021/11/10 08:29:45;;;;;;;11.77;7.70;;;;;;;2.70;70.38;99715.38;2619856;54;20038;-70
2021/11/10 08:32:15;;;;;;;14.15;7.65;;;;;;;2.73;70.29;99722.97;2619782;54;20034;-70
2021/11/10 08:34:44;;;;;;;12.02;7.15;;;;;;;2.84;70.38;99726.50;2618787;54;20033;-67
2021/11/10 08:37:14;;;;;;;15.00;8.18;;;;;;;2.94;70.30;99728.28;2618909;54;20027;-68
2021/11/10 08:39:44;;;;;;;19.17;8.52;;;;;;;3.06;70.07;99738.69;2618762;54;20027;-68
2021/11/10 08:42:13;;;;;;;30.42;9.43;;;;;;;3.19;70.06;99744.63;2618613;54;20569;-69
2021/11/10 08:44:51;;;;;;;31.10;10.90;;;;;;;3.23;69.38;99740.81;2618895;54;20042;-69
2021/11/10 08:47:23;;;;;;;29.67;9.98;;;;;;;3.25;69.61;99731.06;2618899;54;20019;-69
2021/11/10 08:49:52;;;;;;;22.38;8.95;;;;;;;3.34;70.38;99725.06;2618865;54;20027;-69
2021/11/10 08:52:23;;;;;;;21.70;11.60;;;;;;;3.43;70.13;99733.97;2618716;54;20030;-69
2021/11/10 08:54:53;;;;;;;28.02;11.80;;;;;;;3.58;69.66;99737.13;2619188;54;20057;-69
2021/11/10 08:57:22;;;;;;;26.48;10.70;;;;;;;3.65;69.01;99741.72;2618891;54;20030;-69
2021/11/10 08:59:54;;;;;;;31.23;13.98;;;;;;;3.69;69.21;99743.13;2618855;54;20042;-69
2021/11/10 09:02:24;;;;;;;19.25;10.43;;;;;;;3.69;69.20;99748.38;2618882;54;20035;-69
2021/11/10 09:04:54;;;;;;;24.98;10.35;;;;;;;3.78;69.28;99749.38;2618383;47;20054;-68
2021/11/10 09:07:26;;;;;;;17.58;10.10;;;;;;;3.86;69.47;99746.97;2619476;54;20553;-69
2021/11/10 09:09:56;;;;;;;15.68;8.82;;;;;;;3.91;68.37;99742.19;2618732;54;20042;-69
2021/11/10 09:12:26;;;;;;;16.42;9.48;;;;;;;3.79;68.03;99752.84;2620870;54;20034;-70
2021/11/10 09:14:58;;;;;;;30.30;15.73;;;;;;;3.79;68.60;99747.59;2622538;54;20026;-69
2021/11/10 09:17:34;;;;;;;19.75;11.38;;;;;;;3.77;69.23;99746.91;2619984;54;20038;-70
2021/11/10 09:20:04;;;;;;;14.98;9.85;;;;;;;3.80;69.06;99747.50;2618536;54;20033;-70
2021/11/10 09:22:35;;;;;;;20.88;11.45;;;;;;;3.80;69.07;99750.13;2617858;47;20041;-70
2021/11/10 09:25:05;;;;;;;25.20;14.10;;;;;;;3.85;69.69;99762.81;2618823;54;20049;-70
2021/11/10 09:27:38;;;;;;;23.08;12.25;;;;;;;3.89;69.45;99754.56;2619096;54;20564;-70
2021/11/10 09:30:13;;;;;;;21.73;12.10;;;;;;;3.96;69.63;99758.34;2618637;54;20042;-70
2021/11/10 09:32:44;;;;;;;29.98;15.73;;;;;;;3.95;69.43;99755.84;2618090;47;20034;-67
2021/11/10 09:35:16;;;;;;;22.60;12.32;;;;;;;3.98;69.71;99753.81;2618699;54;20557;-69
2021/11/10 09:37:46;;;;;;;26.73;14.05;;;;;;;4.06;70.03;99762.81;2619010;54;20038;-69
2021/11/10 09:40:20;;;;;;;33.80;15.57;;;;;;;4.19;69.34;99759.03;2619302;54;20037;-70
2021/11/10 09:42:50;;;;;;;25.20;13.00;;;;;;;4.28;69.62;99751.38;2620016;54;20018;-71
2021/11/10 09:45:27;;;;;;;22.40;12.75;;;;;;;4.27;69.39;99758.41;2623033;54;20031;-71
2021/11/10 09:47:57;;;;;;;23.33;12.13;;;;;;;4.24;69.29;99766.50;2623467;47;20117;-70
2021/11/10 09:50:28;;;;;;;21.73;12.45;;;;;;;4.28;69.57;99762.66;2619298;54;20037;-71
2021/11/10 09:52:59;;;;;;;38.78;15.98;;;;;;;4.25;70.00;99752.47;2618754;54;20034;-70
2021/11/10 09:55:31;;;;;;;25.10;13.88;;;;;;;4.35;69.95;99755.97;2619272;54;20022;-71
2021/11/10 09:58:03;;;;;;;18.70;11.88;;;;;;;4.45;69.77;99745.56;2618893;54;20045;-70
2021/11/10 10:00:38;;;;;;;24.10;12.13;;;;;;;4.57;69.76;99756.75;2619008;54;20573;-70
2021/11/10 10:03:08;;;;;;;17.70;11.45;;;;;;;4.63;69.10;99754.44;2619622;54;20033;-71
2021/11/10 10:05:45;;;;;;;24.75;13.50;;;;;;;4.77;69.59;99747.19;2619163;54;20038;-71
2021/11/10 10:08:16;;;;;;;25.75;13.07;;;;;;;4.84;68.78;99737.84;2619627;54;20037;-71
2021/11/10 10:10:46;;;;;;;17.67;12.02;;;;;;;4.86;69.08;99747.25;2618613;54;20035;-71
2021/11/10 10:13:17;;;;;;;23.20;11.95;;;;;;;4.90;69.00;99745.19;2617672;47;20031;-70
2021/11/10 10:15:51;;;;;;;22.08;11.77;;;;;;;4.88;68.84;99747.09;2618673;54;20546;-71
2021/11/10 10:18:24;;;;;;;26.25;14.70;;;;;;;4.81;69.16;99746.78;2618122;54;20030;-71
2021/11/10 10:20:57;;;;;;;22.80;14.70;;;;;;;4.80;69.10;99746.94;2618136;54;20085;-71
2021/11/10 10:23:30;;;;;;;23.52;14.05;;;;;;;4.79;69.01;99735.63;2618229;54;20035;-71
2021/11/10 10:26:01;;;;;;;29.63;16.88;;;;;;;4.78;69.47;99741.00;2619008;54;20034;-71
2021/11/10 10:28:33;;;;;;;28.17;16.73;;;;;;;4.88;69.28;99742.69;2619327;39;20116;-71
2021/11/10 10:31:09;;;;;;;24.67;14.77;;;;;;;4.93;69.69;99737.03;2618639;54;20055;-71
2021/11/10 10:33:41;;;;;;;19.77;13.05;;;;;;;4.98;69.28;99732.25;2618966;54;20062;-71
2021/11/10 10:36:12;;;;;;;24.38;14.25;;;;;;;5.02;69.21;99725.78;2619062;54;20557;-71
2021/11/10 10:38:46;;;;;;;20.17;13.82;;;;;;;5.07;69.51;99738.47;2618488;47;20026;-72
2021/11/10 10:41:17;;;;;;;26.90;13.23;;;;;;;5.02;69.18;99735.41;2619572;31;20589;-72
2021/11/10 10:43:49;;;;;;;26.88;15.10;;;;;;;5.06;69.11;99728.94;2618680;54;20041;-72
2021/11/10 10:46:27;;;;;;;35.38;18.55;;;;;;;5.10;69.67;99727.69;2618205;54;20031;-72
2021/11/10 10:49:14;;;;;;;24.75;15.93;;;;;;;5.20;69.47;99723.31;2618915;54;20061;-71
2021/11/10 10:51:44;;;;;;;25.75;13.88;;;;;;;5.35;69.46;99726.38;2618412;46;20082;-71
2021/11/10 10:54:14;;;;;;;27.55;15.07;;;;;;;5.35;69.23;99727.22;2617009;47;20030;-71
2021/11/10 10:56:49;;;;;;;21.02;12.23;;;;;;;5.39;69.05;99727.78;2617748;47;20034;-71
2021/11/10 10:59:19;;;;;;;24.17;14.23;;;;;;;5.44;69.10;99729.00;2619219;54;20045;-71
2021/11/10 11:01:56;;;;;;;20.63;12.40;;;;;;;5.57;68.62;99735.78;2618943;54;20027;-71
2021/11/10 11:04:29;;;;;;;21.15;14.35;;;;;;;5.55;68.90;99728.06;2619561;39;20477;-71
2021/11/10 11:07:04;;;;;;;20.30;12.40;;;;;;;5.63;69.23;99738.69;2619631;39;20671;-71
2021/11/10 11:09:35;;;;;;;20.40;13.55;;;;;;;5.78;68.86;99739.09;2619354;54;20042;-71
2021/11/10 11:12:11;;;;;;;18.50;12.65;;;;;;;5.72;68.28;99729.16;2618913;54;20026;-72
2021/11/10 11:14:48;;;;;;;19.88;13.00;;;;;;;5.70;68.67;99721.41;2619362;54;20038;-72
2021/11/10 11:17:29;;;;;;;20.42;13.48;;;;;;;5.81;68.86;99728.31;2619693;39;20450;-72
2021/11/10 11:20:01;;;;;;;23.00;12.90;;;;;;;5.88;68.40;99713.69;2619305;54;20049;-72
2021/11/10 11:22:32;;;;;;;19.90;13.80;;;;;;;5.91;68.48;99713.38;2619647;54;20038;-71
2021/11/10 11:25:11;;;;;;;22.88;13.70;;;;;;;5.93;68.23;99727.22;2619738;54;20038;-71
2021/11/10 11:27:42;;;;;;;23.92;13.45;;;;;;;5.95;68.50;99724.44;2619472;54;20026;-71
2021/11/10 11:30:14;;;;;;;18.48;12.60;;;;;;;6.11;68.51;99724.69;2619801;54;20050;-72
2021/11/10 11:32:49;;;;;;;17.55;11.90;;;;;;;6.27;68.37;99716.25;2618891;54;20027;-70
2021/11/10 11:35:25;;;;;;;21.27;13.18;;;;;;;6.23;67.45;99707.00;2618957;54;20034;-71
2021/11/10 11:37:57;;;;;;;19.25;12.70;;;;;;;6.15;68.46;99701.63;2618911;54;20034;-71
2021/11/10 11:40:29;;;;;;;19.40;13.02;;;;;;;6.29;68.46;99688.06;2619298;39;20453;-71
2021/11/10 11:43:01;;;;;;;19.98;12.98;;;;;;;6.45;68.25;99684.81;2618869;54;20031;-71
2021/11/10 11:45:33;;;;;;;17.92;13.18;;;;;;;6.49;67.92;99680.06;2618972;54;20042;-72
2021/11/10 11:48:08;;;;;;;20.45;13.05;;;;;;;6.59;68.13;99680.88;2619292;54;20078;-69
2021/11/10 11:50:39;;;;;;;20.30;13.55;;;;;;;6.69;67.59;99671.13;2619051;54;20023;-70
2021/11/10 11:53:10;;;;;;;18.52;12.98;;;;;;;6.69;67.36;99674.63;2618968;54;20038;-70
2021/11/10 11:55:42;;;;;;;18.50;12.65;;;;;;;6.86;67.51;99675.63;2619263;39;20430;-70
2021/11/10 11:58:17;;;;;;;24.17;13.43;;;;;;;6.88;67.38;99680.72;2618942;54;20031;-70
2021/11/10 12:00:50;;;;;;;20.70;13.43;;;;;;;6.90;66.95;99666.47;2620543;54;20038;-70
2021/11/10 12:03:25;;;;;;;16.83;12.68;;;;;;;6.95;67.22;99664.22;2620123;54;20034;-71
2021/11/10 12:06:15;;;;;;;20.35;12.90;;;;;;;7.02;66.66;99660.97;2621320;54;20580;-70
2021/11/10 12:08:48;;;;;;;20.23;13.32;;;;;;;7.10;66.31;99661.91;2618753;54;20045;-71
2021/11/10 12:11:36;;;;;;;19.15;13.13;;;;;;;7.14;66.21;99662.41;2619081;54;20041;-71
2021/11/10 12:14:18;;;;;;;19.80;12.65;;;;;;;7.14;66.32;99662.41;2620369;54;20031;-71
2021/11/10 12:16:50;;;;;;;22.73;13.48;;;;;;;7.22;66.38;99662.50;2619664;39;20129;-71
2021/11/10 12:19:28;;;;;;;19.17;12.48;;;;;;;7.28;66.38;99661.09;2619819;54;20042;-71
2021/11/10 12:22:02;;;;;;;17.67;11.57;;;;;;;7.27;65.73;99655.00;2618819;54;20123;-70
2021/11/10 12:24:43;;;;;;;17.98;11.98;;;;;;;7.31;65.52;99655.53;2619317;54;20031;-70
2021/11/10 12:27:19;;;;;;;16.65;12.52;;;;;;;7.34;65.29;99644.69;2621400;54;20026;-71
2021/11/10 12:29:59;;;;;;;16.92;11.35;;;;;;;7.37;64.99;99639.94;2622974;54;20030;-70
2021/11/10 12:32:55;;;;;;;19.38;12.35;;;;;;;7.40;65.10;99642.28;2622132;54;20038;-71
2021/11/10 12:35:35;;;;;;;22.00;13.10;;;;;;;7.39;64.42;99634.56;2626964;39;20458;-70
2021/11/10 12:38:07;;;;;;;22.25;12.75;;;;;;;7.29;64.86;99631.16;2625442;46;20058;-70
2021/11/10 12:40:46;;;;;;;19.42;13.00;;;;;;;7.21;64.49;99626.66;2625508;54;20037;-71
2021/11/10 12:43:23;;;;;;;22.15;13.38;;;;;;;7.14;65.08;99629.09;2625367;54;20049;-70
2021/11/10 12:46:02;;;;;;;18.23;12.25;;;;;;;7.23;64.84;99627.34;2625463;54;20038;-71
2021/11/10 12:48:38;;;;;;;18.30;11.82;;;;;;;7.27;64.77;99633.13;2622411;54;20038;-70
2021/11/10 12:51:26;;;;;;;22.38;12.88;;;;;;;7.40;64.68;99639.66;2618773;54;20038;-70
2021/11/10 12:53:58;;;;;;;20.42;12.13;;;;;;;7.52;64.52;99639.44;2618214;54;20057;-71
2021/11/10 12:56:43;;;;;;;21.02;13.20;;;;;;;7.57;64.25;99639.78;2618014;54;20031;-70
2021/11/10 12:59:14;;;;;;;21.55;12.90;;;;;;;7.51;64.59;99638.59;2618991;54;20035;-71
2021/11/10 13:01:44;;;;;;;18.45;12.15;;;;;;;7.48;64.11;99632.81;2623548;54;20022;-71
2021/11/10 13:04:15;;;;;;;22.52;12.00;;;;;;;7.44;64.51;99622.59;2624737;54;20042;-71
2021/11/10 13:06:51;;;;;;;19.88;12.73;;;;;;;7.54;64.51;99629.56;2624013;54;20027;-70
2021/11/10 13:09:34;;;;;;;18.42;12.27;;;;;;;7.71;64.10;99626.06;2620930;54;20050;-72
2021/11/10 13:12:07;;;;;;;19.88;11.60;;;;;;;7.82;64.42;99625.81;2618060;54;20030;-66
2021/11/10 13:14:42;;;;;;;15.23;11.20;;;;;;;7.93;64.24;99624.75;2620062;54;20033;-66
2021/11/10 13:17:14;;;;;;;16.25;11.40;;;;;;;8.07;63.69;99616.25;2619824;54;20031;-66
2021/11/10 13:19:46;;;;;;;18.27;11.65;;;;;;;8.22;63.31;99616.50;2619762;54;20038;-66
2021/11/10 13:22:22;;;;;;;16.75;12.00;;;;;;;8.32;63.13;99614.56;2619688;54;20027;-67
2021/11/10 13:24:58;;;;;;;18.60;12.05;;;;;;;8.41;63.29;99610.19;2619747;54;20045;-67
2021/11/10 13:27:33;;;;;;;19.13;12.02;;;;;;;8.45;63.05;99606.28;2619148;54;20038;-67
2021/11/10 13:30:04;;;;;;;20.50;11.52;;;;;;;8.48;62.45;99607.75;2619435;39;20419;-66
2021/11/10 13:32:34;;;;;;;17.10;11.18;;;;;;;8.53;62.53;99605.44;2619603;54;20038;-67
2021/11/10 13:35:05;;;;;;;16.58;11.95;;;;;;;8.59;62.17;99610.91;2619648;47;20035;-67
2021/11/10 13:37:45;;;;;;;18.02;12.13;;;;;;;8.62;61.78;99613.22;2619933;54;20034;-67
2021/11/10 13:40:18;;;;;;;17.83;12.15;;;;;;;8.59;62.12;99615.34;2620738;54;20041;-67
2021/11/10 13:42:51;;;;;;;17.45;11.18;;;;;;;8.55;61.86;99617.50;2623626;54;20615;-66
2021/11/10 13:45:28;;;;;;;22.48;10.40;;;;;;;8.48;62.02;99611.19;2624716;54;20034;-68
2021/11/10 13:48:00;;;;;;;17.02;11.48;;;;;;;8.47;61.65;99614.00;2625805;54;20030;-68
2021/11/10 13:50:31;;;;;;;20.88;12.63;;;;;;;8.42;61.84;99620.56;2624830;54;20539;-68
2021/11/10 13:53:07;;;;;;;20.05;12.32;;;;;;;8.43;62.14;99622.22;2624010;54;20034;-68
2021/11/10 13:55:39;;;;;;;19.63;11.43;;;;;;;8.39;61.68;99612.97;2623175;39;20437;-68
2021/11/10 13:58:12;;;;;;;20.20;12.35;;;;;;;8.30;61.87;99611.28;2622378;54;20038;-68
2021/11/10 14:00:44;;;;;;;17.17;12.07;;;;;;;8.29;61.89;99608.81;2621777;54;20031;-68
2021/11/10 14:03:21;;;;;;;19.92;12.20;;;;;;;8.27;62.00;99606.31;2622479;54;20142;-68
2021/11/10 14:05:50;;;;;;;17.85;11.75;;;;;;;8.28;62.35;99607.13;2621816;47;20031;-68
2021/11/10 14:08:24;;;;;;;16.20;11.25;;;;;;;8.17;62.32;99597.72;2622092;54;20030;-68
2021/11/10 14:10:59;;;;;;;18.67;11.82;;;;;;;8.09;62.10;99601.13;2622819;47;20070;-68
2021/11/10 14:13:29;;;;;;;18.52;13.18;;;;;;;8.08;62.29;99596.84;2622628;54;20035;-68
2021/11/10 14:15:58;;;;;;;18.15;11.50;;;;;;;8.06;62.38;99600.63;2622665;54;20038;-68
2021/11/10 14:18:29;;;;;;;18.20;10.75;;;;;;;8.01;62.80;99597.63;2621056;54;20066;-69
2021/11/10 14:20:58;;;;;;;16.70;11.57;;;;;;;7.99;62.73;99607.47;2621096;54;20070;-68
2021/11/10 14:23:32;;;;;;;16.77;11.65;;;;;;;8.01;63.20;99608.16;2621677;54;20033;-68
2021/11/10 14:26:06;;;;;;;18.63;12.60;;;;;;;8.03;63.29;99608.81;2621625;54;20034;-67
2021/11/10 14:28:39;;;;;;;18.15;11.07;;;;;;;8.01;63.34;99601.09;2621550;47;20649;-68
2021/11/10 14:31:11;;;;;;;20.98;11.65;;;;;;;7.98;63.39;99611.09;2624216;54;20033;-68
2021/11/10 14:33:43;;;;;;;16.35;11.27;;;;;;;7.91;63.73;99603.81;2626192;54;20037;-68
2021/11/10 14:36:15;;;;;;;15.98;10.68;;;;;;;7.88;63.73;99601.53;2620783;54;20034;-68
2021/11/10 14:38:49;;;;;;;17.05;11.32;;;;;;;7.87;64.10;99597.22;2620389;54;20027;-70
2021/11/10 14:41:23;;;;;;;19.77;11.90;;;;;;;7.89;64.28;99595.25;2620135;54;20074;-67
2021/11/10 14:43:56;;;;;;;17.42;11.38;;;;;;;7.85;64.23;99598.38;2619742;54;20027;-68
2021/11/10 14:46:33;;;;;;;17.75;11.27;;;;;;;7.83;64.62;99598.50;2620362;54;20034;-69
2021/11/10 14:49:09;;;;;;;21.25;12.15;;;;;;;7.87;64.77;99594.56;2620212;54;20027;-67
2021/11/10 14:51:41;;;;;;;18.20;11.65;;;;;;;7.90;64.67;99590.81;2620571;39;20437;-70
2021/11/10 14:54:15;;;;;;;17.10;12.07;;;;;;;7.88;64.41;99592.81;2620656;54;20038;-68
2021/11/10 14:56:55;;;;;;;18.25;11.93;;;;;;;7.76;65.08;99586.97;2624206;54;20042;-70
2021/11/10 14:59:29;;;;;;;15.63;11.82;;;;;;;7.65;65.14;99590.66;2623155;54;20029;-68
2021/11/10 15:02:07;;;;;;;22.75;11.40;;;;;;;7.61;65.31;99593.78;2623229;54;20042;-68
2021/11/10 15:04:38;;;;;;;19.35;12.50;;;;;;;7.57;64.95;99597.69;2622706;54;20031;-68
2021/11/10 15:07:11;;;;;;;19.40;12.93;;;;;;;7.54;65.17;99595.34;2622870;54;20042;-68
2021/11/10 15:09:46;;;;;;;22.60;14.52;;;;;;;7.39;65.24;99597.72;2623680;54;20537;-68
2021/11/10 15:12:21;;;;;;;30.33;16.67;;;;;;;7.32;65.38;99602.75;2623409;54;20062;-68
2021/11/10 15:14:53;;;;;;;22.75;13.70;;;;;;;7.27;65.80;99599.78;2624269;54;20069;-67
2021/11/10 15:17:32;;;;;;;20.52;13.05;;;;;;;7.27;65.92;99602.41;2624595;54;20034;-70
2021/11/10 15:20:19;;;;;;;21.63;12.80;;;;;;;7.25;65.98;99599.09;2624961;54;20031;-68
2021/11/10 15:23:01;;;;;;;22.67;14.65;;;;;;;7.24;66.09;99599.25;2623929;47;20050;-68
2021/11/10 15:25:35;;;;;;;24.23;13.77;;;;;;;7.24;66.21;99597.44;2625539;54;20038;-68
2021/11/10 15:28:08;;;;;;;19.50;13.00;;;;;;;7.24;66.33;99592.19;2625143;46;20074;-68
2021/11/10 15:30:40;;;;;;;20.88;14.38;;;;;;;7.26;66.31;99592.00;2624355;54;20580;-68
2021/11/10 15:33:12;;;;;;;20.90;14.43;;;;;;;7.24;66.55;99594.81;2624947;54;20027;-69
2021/11/10 15:35:44;;;;;;;22.70;13.43;;;;;;;7.16;66.93;99592.94;2624202;50;20022;-68
2021/11/10 15:38:18;;;;;;;23.88;15.73;;;;;;;7.15;67.09;99600.97;2624511;47;20056;-68
2021/11/10 15:40:55;;;;;;;23.75;14.63;;;;;;;7.11;67.27;99603.09;2624683;54;20588;-68
2021/11/10 15:43:26;;;;;;;23.55;14.48;;;;;;;7.07;67.41;99607.00;2624544;54;20042;-67
2021/11/10 15:45:56;;;;;;;30.70;15.45;;;;;;;7.03;67.26;99612.69;2625245;54;20041;-68
2021/11/10 15:48:27;;;;;;;24.88;14.35;;;;;;;6.95;67.43;99616.91;2625156;54;20558;-69
2021/11/10 15:50:59;;;;;;;32.97;16.17;;;;;;;6.91;67.55;99604.22;2625027;54;20558;-69
2021/11/10 15:53:31;;;;;;;24.60;14.55;;;;;;;6.83;68.23;99607.56;2625310;54;20027;-68
2021/11/10 15:56:04;;;;;;;23.92;14.73;;;;;;;6.80;68.11;99610.50;2624917;54;20037;-69
2021/11/10 15:58:34;;;;;;;25.20;15.77;;;;;;;6.76;68.32;99608.31;2624325;51;20042;-70
2021/11/10 16:01:05;;;;;;;31.05;16.73;;;;;;;6.75;68.25;99610.13;2622836;54;20808;-70
2021/11/10 16:03:38;;;;;;;25.23;15.68;;;;;;;6.73;68.57;99613.84;2625097;47;20027;-69
2021/11/10 16:06:10;;;;;;;22.48;15.60;;;;;;;6.68;68.41;99606.41;2625297;54;20820;-69
2021/11/10 16:08:45;;;;;;;26.77;15.65;;;;;;;6.63;68.99;99608.69;2626040;54;20030;-69
2021/11/10 16:11:17;;;;;;;23.17;14.77;;;;;;;6.60;68.84;99601.91;2625750;54;20045;-71
2021/11/10 16:14:06;;;;;;;20.27;14.23;;;;;;;6.56;68.83;99604.97;2625500;54;20034;-69
2021/11/10 16:16:36;;;;;;;23.70;15.73;;;;;;;6.56;69.04;99602.34;2625708;47;20038;-69
2021/11/10 16:19:06;;;;;;;22.75;14.27;;;;;;;6.56;69.06;99594.47;2627205;39;20422;-69
2021/11/10 16:21:36;;;;;;;28.70;16.65;;;;;;;6.51;69.47;99586.22;2625329;39;20429;-71
2021/11/10 16:24:07;;;;;;;26.50;15.55;;;;;;;6.41;69.22;99599.41;2625380;54;20055;-71
2021/11/10 16:26:39;;;;;;;26.70;14.77;;;;;;;6.36;69.70;99601.63;2625319;47;20037;-70
2021/11/10 16:29:10;;;;;;;21.80;13.13;;;;;;;6.32;69.63;99601.09;2624281;54;20095;-71
2021/11/10 16:31:54;;;;;;;25.33;14.80;;;;;;;6.28;70.22;99604.97;2623735;47;20023;-70
2021/11/10 16:34:24;;;;;;;33.20;15.65;;;;;;;6.28;69.78;99610.22;2624962;54;20062;-69
2021/11/10 16:36:54;;;;;;;26.27;14.68;;;;;;;6.27;69.97;99613.00;2625986;54;20023;-69
2021/11/10 16:39:26;;;;;;;20.35;13.35;;;;;;;6.20;70.07;99620.63;2626090;54;20074;-68
2021/11/10 16:41:58;;;;;;;21.90;13.05;;;;;;;6.04;70.15;99612.53;2622648;54;20141;-69
2021/11/10 16:44:28;;;;;;;21.90;14.85;;;;;;;5.91;70.51;99613.66;2622525;47;20034;-69
2021/11/10 16:46:57;;;;;;;23.48;14.95;;;;;;;5.87;70.78;99614.91;2622078;54;20035;-72
2021/11/10 16:49:27;;;;;;;32.80;16.15;;;;;;;5.80;70.79;99626.13;2625107;39;20470;-71
2021/11/10 16:51:57;;;;;;;22.38;14.32;;;;;;;5.62;71.08;99637.31;2624118;54;20811;-70
2021/11/10 16:54:27;;;;;;;22.00;14.10;;;;;;;5.58;71.21;99632.50;2623435;54;20035;-70
2021/11/10 16:56:59;;;;;;;24.45;15.75;;;;;;;5.53;71.64;99635.56;2623707;54;20023;-70
2021/11/10 16:59:29;;;;;;;25.83;15.52;;;;;;;5.47;71.76;99644.00;2623687;54;20039;-71
2021/11/10 17:01:59;;;;;;;30.25;15.35;;;;;;;5.39;71.89;99642.06;2623358;54;20031;-69
2021/11/10 17:04:29;;;;;;;23.33;15.38;;;;;;;5.30;72.22;99658.59;2624013;54;20030;-69
2021/11/10 17:06:58;;;;;;;23.38;15.07;;;;;;;5.33;72.46;99660.13;2623888;54;20042;-70
2021/11/10 17:09:28;;;;;;;28.15;15.68;;;;;;;5.34;72.57;99657.38;2624237;54;20045;-69
2021/11/10 17:12:00;;;;;;;27.42;18.15;;;;;;;5.38;72.07;99658.75;2622424;54;20089;-70
2021/11/10 17:14:30;;;;;;;32.28;19.60;;;;;;;5.42;71.84;99665.38;2622234;47;20042;-70
2021/11/10 17:16:59;;;;;;;26.58;15.70;;;;;;;5.39;72.07;99667.47;2620884;47;20034;-71
2021/11/10 17:19:29;;;;;;;23.98;16.08;;;;;;;5.36;72.17;99665.09;2622012;39;20521;-69
2021/11/10 17:21:59;;;;;;;26.48;15.55;;;;;;;5.29;72.03;99667.44;2621860;54;20030;-68
2021/11/10 17:24:29;;;;;;;24.00;16.40;;;;;;;5.28;72.19;99662.34;2621756;54;20557;-69
2021/11/10 17:27:01;;;;;;;23.08;14.98;;;;;;;5.25;72.40;99660.00;2621589;54;20046;-69
2021/11/10 17:29:30;;;;;;;23.77;14.60;;;;;;;5.22;72.66;99659.31;2622734;54;20042;-70
2021/11/10 17:32:00;;;;;;;24.73;14.40;;;;;;;5.21;72.51;99656.81;2624406;54;20035;-70
2021/11/10 17:34:30;;;;;;;26.63;15.65;;;;;;;5.16;72.33;99672.13;2624439;54;20041;-70
2021/11/10 17:37:07;;;;;;;23.50;15.02;;;;;;;5.07;72.87;99667.72;2624740;54;20034;-68
2021/11/10 17:39:37;;;;;;;27.98;15.77;;;;;;;5.04;72.61;99662.75;2622516;54;20034;-70
2021/11/10 17:42:13;;;;;;;22.85;15.52;;;;;;;5.05;72.99;99656.53;2621902;47;20570;-69
2021/11/10 17:44:43;;;;;;;25.88;15.35;;;;;;;4.96;73.05;99655.56;2623658;39;20442;-69
2021/11/10 17:47:13;;;;;;;23.00;13.63;;;;;;;4.94;72.99;99650.47;2623490;54;20098;-69
2021/11/10 17:49:44;;;;;;;24.10;12.45;;;;;;;4.71;72.90;99652.47;2623867;47;20538;-69
2021/11/10 17:52:13;;;;;;;21.10;13.05;;;;;;;4.59;73.57;99658.78;2623884;54;20038;-69
2021/11/10 17:54:43;;;;;;;21.13;12.93;;;;;;;4.53;73.71;99650.63;2623989;54;20572;-69
2021/11/10 17:57:16;;;;;;;22.90;14.07;;;;;;;4.46;73.87;99647.72;2623920;39;20714;-69
2021/11/10 17:59:46;;;;;;;24.70;14.00;;;;;;;4.39;73.88;99647.41;2624014;39;20534;-70
2021/11/10 18:02:15;;;;;;;19.40;13.48;;;;;;;4.40;73.97;99648.22;2623507;54;20038;-69
2021/11/10 18:04:46;;;;;;;23.23;12.95;;;;;;;4.42;74.20;99644.53;2622959;54;20042;-69
2021/11/10 18:07:15;;;;;;;21.52;15.25;;;;;;;4.44;73.83;99647.00;2622549;54;20038;-69
2021/11/10 18:09:45;;;;;;;21.58;15.63;;;;;;;4.37;74.01;99648.53;2622910;54;20046;-69
2021/11/10 18:12:17;;;;;;;23.58;15.35;;;;;;;4.38;74.55;99656.22;2622878;54;20055;-68
2021/11/10 18:14:47;;;;;;;23.77;14.77;;;;;;;4.43;74.74;99648.81;2622326;54;20034;-69
2021/11/10 18:17:16;;;;;;;26.55;15.63;;;;;;;4.50;74.66;99653.53;2622865;54;20050;-68
2021/11/10 18:19:46;;;;;;;21.20;14.93;;;;;;;4.53;74.47;99648.84;2622522;47;20042;-69
2021/11/10 18:22:16;;;;;;;24.10;14.75;;;;;;;4.57;74.39;99654.63;2622111;54;20034;-68
2021/11/10 18:24:46;;;;;;;23.55;16.23;;;;;;;4.59;74.24;99650.91;2622615;54;20042;-69
2021/11/10 18:27:18;;;;;;;27.35;16.02;;;;;;;4.62;74.04;99644.59;2622807;54;20031;-67
2021/11/10 18:29:47;;;;;;;23.05;15.43;;;;;;;4.63;73.50;99654.09;2623160;54;20141;-67
2021/11/10 18:32:17;;;;;;;27.08;14.88;;;;;;;4.60;73.35;99659.59;2623297;54;20034;-68
2021/11/10 18:34:47;;;;;;;22.35;14.73;;;;;;;4.61;73.32;99656.00;2622190;47;20038;-70
2021/11/10 18:37:16;;;;;;;20.67;14.98;;;;;;;4.57;73.46;99649.38;2622965;39;20458;-68
2021/11/10 18:39:46;;;;;;;23.02;15.70;;;;;;;4.48;73.32;99654.47;2621057;54;20074;-69
2021/11/10 18:42:19;;;;;;;21.73;14.48;;;;;;;4.28;73.04;99660.59;2623073;54;20099;-69
2021/11/10 18:44:49;;;;;;;23.95;13.50;;;;;;;4.12;73.88;99661.09;2623179;39;20466;-68
2021/11/10 18:47:18;;;;;;;24.73;14.05;;;;;;;4.08;73.87;99659.69;2623067;39;20425;-68
2021/11/10 18:49:48;;;;;;;21.92;13.20;;;;;;;4.01;74.06;99663.78;2622827;54;20042;-70